createdAt,value
2019-01-11T00:02:35.143Z,4.40
2019-01-11T00:07:37.319Z,4.70
2019-01-11T00:12:40.219Z,4.63
2019-01-11T00:17:42.361Z,4.73
2019-01-11T00:22:44.789Z,4.60
2019-01-11T00:27:47.634Z,4.40
2019-01-11T00:32:49.827Z,5.00
2019-01-11T00:37:52.593Z,4.97
2019-01-11T00:42:55.012Z,5.60
2019-01-11T00:47:57.179Z,5.83
2019-01-11T00:52:59.377Z,5.20
2019-01-11T00:58:01.816Z,5.77
2019-01-11T01:03:04.291Z,5.97
2019-01-11T01:08:06.464Z,6.10
2019-01-11T01:13:09.000Z,6.00
2019-01-11T01:18:11.499Z,6.53
2019-01-11T01:23:13.677Z,6.40
2019-01-11T01:28:16.035Z,6.40
2019-01-11T01:33:18.647Z,7.03
2019-01-11T01:38:20.827Z,6.87
2019-01-11T01:43:23.303Z,7.30
2019-01-11T01:48:25.607Z,8.37
2019-01-11T01:53:28.282Z,7.90
2019-01-11T01:58:30.436Z,8.20
2019-01-11T02:03:33.052Z,7.77
2019-01-11T02:08:35.697Z,9.33
2019-01-11T02:13:38.008Z,9.00
2019-01-11T02:18:40.670Z,8.90
2019-01-11T02:23:43.308Z,9.40
2019-01-11T02:28:45.506Z,9.50
2019-01-11T02:33:48.116Z,9.73
2019-01-11T02:38:50.528Z,10.43
2019-01-11T02:43:52.737Z,10.93
2019-01-11T02:48:55.397Z,11.83
2019-01-11T02:53:57.543Z,11.43
2019-01-11T02:58:59.708Z,12.37
2019-01-11T03:04:02.061Z,12.63
2019-01-11T03:09:06.278Z,14.00
2019-01-11T03:14:08.777Z,14.07
2019-01-11T03:19:10.956Z,14.93
2019-01-11T03:24:13.141Z,15.73
2019-01-11T03:29:15.315Z,16.93
2019-01-11T03:34:17.501Z,17.50
2019-01-11T03:39:20.072Z,17.60
2019-01-11T03:44:22.289Z,17.60
2019-01-11T03:49:24.544Z,17.80
2019-01-11T03:54:26.751Z,17.27
2019-01-11T03:59:29.652Z,18.93
2019-01-11T04:04:31.834Z,18.60
2019-01-11T04:09:34.011Z,17.70
2019-01-11T04:14:36.723Z,17.70
2019-01-11T04:19:38.930Z,18.57
2019-01-11T04:25:03.232Z,18.63
2019-01-11T04:30:13.988Z,18.13
2019-01-11T04:35:18.696Z,17.57
2019-01-11T04:40:21.422Z,17.90
2019-01-11T04:45:24.405Z,17.97
2019-01-11T04:50:26.729Z,20.03
2019-01-11T04:55:28.905Z,19.17
2019-01-11T05:00:31.317Z,18.50
2019-01-11T05:05:33.938Z,18.33
2019-01-11T05:10:36.597Z,18.83
2019-01-11T05:15:39.365Z,16.93
2019-01-11T05:20:41.781Z,17.63
2019-01-11T05:25:44.222Z,16.97
2019-01-11T05:30:46.635Z,17.20
2019-01-11T05:35:48.840Z,16.27
2019-01-11T05:40:51.077Z,15.23
2019-01-11T05:45:53.441Z,15.07
2019-01-11T05:50:56.147Z,15.27
2019-01-11T05:56:01.645Z,14.17
2019-01-11T06:01:04.337Z,13.70
2019-01-11T06:06:06.966Z,13.87
2019-01-11T06:11:09.420Z,13.47
2019-01-11T06:16:12.395Z,14.13
2019-01-11T06:21:14.851Z,14.27
2019-01-11T06:26:17.141Z,13.10
2019-01-11T06:31:19.634Z,13.87
2019-01-11T06:36:22.175Z,13.80
2019-01-11T06:41:26.718Z,13.53
2019-01-11T06:46:29.153Z,13.43
2019-01-11T06:51:32.057Z,13.23
2019-01-11T06:56:34.963Z,13.43
2019-01-11T07:01:37.739Z,11.87
2019-01-11T07:06:40.390Z,12.07
2019-01-11T07:11:44.043Z,12.23
2019-01-11T07:16:46.338Z,12.07
2019-01-11T07:21:48.491Z,12.30
2019-01-11T07:26:50.634Z,12.33
2019-01-11T07:31:53.080Z,12.23
2019-01-11T07:36:56.083Z,12.07
2019-01-11T07:41:58.690Z,12.90
2019-01-11T07:47:01.260Z,12.40
2019-01-11T07:52:04.271Z,12.90
2019-01-11T07:57:06.733Z,12.60
2019-01-11T08:02:09.373Z,12.17
2019-01-11T08:07:11.709Z,10.30
2019-01-11T08:12:13.909Z,10.47
2019-01-11T08:17:16.607Z,10.63
2019-01-11T08:22:33.692Z,10.67
2019-01-11T08:27:36.294Z,9.70
2019-01-11T08:32:39.344Z,9.40
2019-01-11T08:37:42.044Z,10.43
2019-01-11T08:42:44.374Z,10.67
2019-01-11T08:47:46.960Z,10.33
2019-01-11T08:52:49.299Z,10.33
2019-01-11T08:57:51.567Z,11.17
2019-01-11T09:02:53.758Z,10.97
2019-01-11T09:07:56.155Z,11.87
2019-01-11T09:12:59.107Z,12.43
2019-01-11T09:18:11.872Z,12.03
2019-01-11T09:23:14.664Z,12.23
2019-01-11T09:28:17.104Z,12.70
2019-01-11T09:33:20.577Z,13.13
2019-01-11T09:38:23.246Z,12.27
2019-01-11T09:43:25.935Z,13.40
2019-01-11T09:48:28.385Z,13.53
2019-01-11T09:53:30.960Z,13.17
2019-01-11T09:58:33.644Z,14.10
2019-01-11T10:03:36.581Z,14.70
2019-01-11T10:08:38.762Z,14.73
2019-01-11T10:13:40.902Z,15.20
2019-01-11T10:18:43.140Z,15.60
2019-01-11T10:23:45.382Z,15.67
2019-01-11T10:28:48.047Z,17.50
2019-01-11T10:33:50.757Z,17.07
2019-01-11T10:38:53.064Z,16.83
2019-01-11T10:43:55.478Z,18.87
2019-01-11T10:48:57.895Z,17.47
2019-01-11T10:54:01.855Z,15.97
2019-01-11T10:59:04.858Z,15.17
2019-01-11T11:04:07.659Z,14.93
2019-01-11T11:09:10.130Z,15.33
2019-01-11T11:14:12.546Z,15.27
2019-01-11T11:19:15.522Z,13.87
2019-01-11T11:24:17.939Z,12.23
2019-01-11T11:29:20.569Z,13.27
2019-01-11T11:34:27.230Z,12.13
2019-01-11T11:39:29.860Z,11.83
2019-01-11T11:44:32.483Z,13.27
2019-01-11T11:49:34.701Z,13.37
2019-01-11T11:54:36.870Z,13.40
2019-01-11T11:59:39.422Z,12.27
2019-01-11T12:04:42.325Z,13.07
2019-01-11T12:09:44.814Z,12.00
2019-01-11T12:14:46.946Z,11.77
2019-01-11T12:19:49.640Z,10.40
2019-01-11T12:24:52.144Z,10.37
2019-01-11T12:29:54.781Z,10.17
2019-01-11T12:34:57.069Z,10.67
2019-01-11T12:40:00.321Z,12.80
2019-01-11T12:45:04.645Z,11.17
2019-01-11T12:50:12.316Z,10.33
2019-01-11T12:55:15.255Z,11.70
2019-01-11T13:00:18.082Z,10.97
2019-01-11T13:05:20.921Z,11.30
2019-01-11T13:10:23.138Z,11.40
2019-01-11T13:15:26.275Z,12.03
2019-01-11T13:20:28.855Z,12.17
2019-01-11T13:25:32.346Z,11.57
2019-01-11T13:30:35.047Z,11.03
2019-01-11T13:35:37.291Z,10.63
2019-01-11T13:40:39.743Z,9.97
2019-01-11T13:45:42.635Z,9.70
2019-01-11T13:50:45.322Z,10.00
2019-01-11T13:55:47.909Z,10.63
2019-01-11T14:00:50.420Z,11.20
2019-01-11T14:05:52.607Z,10.53
2019-01-11T14:10:55.356Z,9.97
2019-01-11T14:15:57.609Z,10.23
2019-01-11T14:21:00.499Z,8.53
2019-01-11T14:26:02.759Z,8.10
2019-01-11T14:31:05.279Z,8.20
2019-01-11T14:36:07.773Z,8.13
2019-01-11T14:41:11.085Z,8.30
2019-01-11T14:46:13.651Z,7.27
2019-01-11T14:51:15.905Z,7.83
2019-01-11T14:56:18.140Z,8.27
2019-01-11T15:01:20.365Z,7.63
2019-01-11T15:06:23.321Z,8.37
2019-01-11T15:11:25.733Z,8.43
2019-01-11T15:16:28.180Z,9.57
2019-01-11T15:21:30.373Z,8.80
2019-01-11T15:26:33.295Z,9.20
2019-01-11T15:31:36.056Z,9.63
2019-01-11T15:36:38.148Z,9.40
2019-01-11T15:41:40.821Z,10.33
2019-01-11T15:46:43.621Z,10.80
2019-01-11T15:51:45.821Z,10.83
2019-01-11T15:56:48.509Z,10.23
2019-01-11T16:01:53.890Z,9.03
2019-01-11T16:06:56.064Z,9.43
2019-01-11T16:12:07.083Z,8.77
2019-01-11T16:17:12.667Z,9.50
2019-01-11T16:22:15.532Z,9.23
2019-01-11T16:27:18.639Z,10.47
2019-01-11T16:32:20.915Z,10.27
2019-01-11T16:37:23.526Z,10.33
2019-01-11T16:42:25.812Z,10.20
2019-01-11T16:47:28.297Z,10.80
2019-01-11T16:52:30.600Z,10.40
2019-01-11T16:57:33.313Z,10.60
2019-01-11T17:02:36.732Z,11.10
2019-01-11T17:07:39.571Z,9.83
2019-01-11T17:12:42.192Z,10.50
2019-01-11T17:17:44.417Z,11.00
2019-01-11T17:22:52.760Z,9.80
2019-01-11T17:27:50.854Z,9.13
2019-01-11T17:32:54.457Z,10.37
2019-01-11T17:37:57.343Z,10.20
2019-01-11T17:42:59.529Z,9.40
2019-01-11T17:48:03.033Z,8.63
2019-01-11T17:53:05.509Z,9.33
2019-01-11T17:58:07.687Z,8.37
2019-01-11T18:03:10.096Z,8.00
2019-01-11T18:08:12.434Z,7.17
2019-01-11T18:13:15.800Z,7.50
2019-01-11T18:18:18.106Z,8.77
2019-01-11T18:23:20.597Z,7.50
2019-01-11T18:28:22.987Z,6.90
2019-01-11T18:33:25.218Z,7.30
2019-01-11T18:38:27.531Z,6.80
2019-01-11T18:43:29.914Z,6.57
2019-01-11T18:48:32.059Z,5.50
2019-01-11T18:53:34.194Z,5.40
2019-01-11T18:58:36.891Z,5.63
2019-01-11T19:03:39.339Z,5.20
2019-01-11T19:08:42.003Z,4.87
2019-01-11T19:13:44.195Z,4.20
2019-01-11T19:18:47.826Z,4.37
2019-01-11T19:23:50.473Z,4.63
2019-01-11T19:28:52.864Z,4.33
2019-01-11T19:33:55.515Z,4.50
2019-01-11T19:38:58.291Z,4.50
2019-01-11T19:44:02.199Z,4.77
2019-01-11T19:49:05.216Z,4.40
2019-01-11T19:54:08.209Z,4.80
2019-01-11T19:59:10.478Z,4.67
2019-01-11T20:04:12.885Z,4.30
2019-01-11T20:09:15.080Z,4.00
2019-01-11T20:14:18.025Z,4.50
2019-01-11T20:19:20.605Z,4.27
2019-01-11T20:24:23.512Z,5.20
2019-01-11T20:29:25.870Z,4.70
2019-01-11T20:34:28.161Z,4.70
2019-01-11T20:39:30.458Z,4.50
2019-01-11T20:44:32.663Z,4.83
2019-01-11T20:49:35.340Z,5.20
2019-01-11T20:54:37.627Z,4.00
2019-01-11T20:59:40.041Z,6.03
2019-01-11T21:04:42.552Z,5.50
2019-01-11T21:09:45.199Z,4.60
2019-01-11T21:14:47.713Z,6.23
2019-01-11T21:19:50.219Z,5.07
2019-01-11T21:24:52.683Z,6.23
2019-01-11T21:29:55.554Z,5.90
2019-01-11T21:34:57.797Z,6.60
2019-01-11T21:40:00.518Z,6.20
2019-01-11T21:45:04.342Z,5.87
2019-01-11T21:50:14.611Z,6.03
2019-01-11T21:55:17.307Z,6.57
2019-01-11T22:00:32.804Z,7.53
2019-01-11T22:05:35.109Z,6.87
2019-01-11T22:10:37.384Z,6.10
2019-01-11T22:15:39.603Z,6.73
2019-01-11T22:20:42.343Z,6.80
2019-01-11T22:25:45.060Z,5.60
2019-01-11T22:30:47.555Z,6.70
2019-01-11T22:35:49.746Z,6.77
2019-01-11T22:40:51.966Z,7.30
2019-01-11T22:45:54.205Z,7.80
2019-01-11T22:50:56.396Z,8.33
2019-01-11T22:55:58.999Z,9.73
2019-01-11T23:01:50.133Z,9.70
2019-01-11T23:07:17.431Z,8.17
2019-01-11T23:12:57.545Z,7.90
2019-01-11T23:18:07.899Z,8.33
2019-01-11T23:23:10.120Z,7.90
2019-01-11T23:28:12.852Z,7.67
2019-01-11T23:33:15.196Z,7.87
2019-01-11T23:38:17.488Z,7.93
2019-01-11T23:43:19.910Z,8.03
2019-01-11T23:48:23.419Z,9.07
2019-01-11T23:53:25.629Z,7.70
2019-01-11T23:58:28.565Z,9.10
